Time;durP1;ratioP1;P1;durP2;ratioP2;P2;SDS_P1;SDS_P2;PMS_P1;PMS_P2;Temp;Humidity;BMP_temperature;BMP_pressure;BME280_temperature;BME280_humidity;BME280_pressure;Samples;Min_cycle;Max_cycle;Signal;HPM_P1;HPM_P2
2022/08/30 00:03:00;;;;;;;4.90;4.60;;;;;;;14.16;95.17;102295.09;5012964;28;20444;-44
2022/08/30 00:05:30;;;;;;;4.87;4.57;;;;;;;14.09;94.87;102294.19;5012698;28;20561;-43
2022/08/30 00:07:58;;;;;;;4.87;4.57;;;;;;;14.03;95.51;102303.78;5013287;28;20480;-44
2022/08/30 00:10:28;;;;;;;4.37;4.17;;;;;;;13.96;95.50;102291.25;5012952;28;20441;-45
2022/08/30 00:12:58;;;;;;;4.80;4.50;;;;;;;13.91;96.28;102291.81;5012708;28;20425;-42
2022/08/30 00:15:28;;;;;;;4.70;4.50;;;;;;;13.85;95.75;102293.38;5012531;28;20874;-45
2022/08/30 00:17:55;;;;;;;7.13;4.30;;;;;;;13.77;94.87;102293.44;5012782;28;20568;-46
2022/08/30 00:20:26;;;;;;;4.43;4.13;;;;;;;13.69;94.62;102293.50;5012856;28;20437;-46
2022/08/30 00:22:56;;;;;;;3.97;3.67;;;;;;;13.56;93.51;102295.13;5012692;28;20434;-44
2022/08/30 00:25:23;;;;;;;4.73;4.40;;;;;;;13.44;93.11;102294.66;5012388;28;20543;-46
2022/08/30 00:27:51;;;;;;;4.57;3.90;;;;;;;13.30;92.68;102300.78;5012462;28;20480;-46
2022/08/30 00:30:20;;;;;;;4.53;4.13;;;;;;;13.19;92.35;102303.88;5012505;28;20445;-44
2022/08/30 00:32:48;;;;;;;4.33;4.17;;;;;;;13.09;92.68;102312.13;5012400;28;20445;-42
2022/08/30 00:35:19;;;;;;;4.43;4.23;;;;;;;13.01;93.00;102311.31;5012054;28;20490;-42
2022/08/30 00:37:47;;;;;;;4.23;3.93;;;;;;;12.93;93.10;102309.47;5012552;28;20433;-46
2022/08/30 00:40:18;;;;;;;5.03;4.13;;;;;;;12.87;93.33;102312.88;5012534;28;20792;-44
2022/08/30 00:42:51;;;;;;;4.87;4.03;;;;;;;12.82;93.52;102317.06;5012013;28;20791;-45
2022/08/30 00:45:27;;;;;;;4.70;4.20;;;;;;;12.73;93.82;102314.41;5012231;28;20551;-45
2022/08/30 00:47:55;;;;;;;4.57;4.17;;;;;;;12.66;94.47;102317.97;5000752;28;20473;-45
2022/08/30 00:50:27;;;;;;;4.27;4.07;;;;;;;12.62;94.98;102305.94;5012546;28;20447;-44
2022/08/30 00:52:59;;;;;;;4.47;4.17;;;;;;;12.55;94.89;102303.09;5012946;28;20435;-46
2022/08/30 00:55:29;;;;;;;4.37;4.07;;;;;;;12.51;95.20;102309.81;5011691;28;21086;-45
2022/08/30 00:58:01;;;;;;;4.73;4.50;;;;;;;12.48;95.94;102318.19;5012608;28;20463;-46
2022/08/30 01:00:32;;;;;;;4.10;3.90;;;;;;;12.45;95.83;102317.69;5012123;28;20433;-48
2022/08/30 01:03:00;;;;;;;4.33;4.13;;;;;;;12.42;96.74;102310.84;5012039;28;20439;-44
2022/08/30 01:05:28;;;;;;;4.40;4.20;;;;;;;12.39;97.00;102315.69;5011699;28;20491;-45
2022/08/30 01:07:56;;;;;;;4.37;4.17;;;;;;;12.35;97.13;102323.22;5011253;28;20429;-48
2022/08/30 01:10:23;;;;;;;4.47;4.17;;;;;;;12.31;97.59;102321.88;5011738;28;20946;-43
2022/08/30 01:12:52;;;;;;;4.37;3.97;;;;;;;12.28;97.67;102322.22;5011776;28;20437;-43
2022/08/30 01:15:20;;;;;;;4.50;4.20;;;;;;;12.28;98.15;102330.25;5011303;28;20465;-46
2022/08/30 01:17:48;;;;;;;4.97;4.57;;;;;;;12.28;98.88;102326.72;5011937;28;20533;-45
2022/08/30 01:20:24;;;;;;;5.07;4.60;;;;;;;12.31;100.00;102335.25;5009294;28;20441;-47
2022/08/30 01:23:11;;;;;;;4.10;3.90;;;;;;;12.30;100.00;102328.25;5009271;28;20441;-43
2022/08/30 01:25:41;;;;;;;4.07;3.77;;;;;;;12.28;100.00;102327.56;5011414;28;20831;-46
2022/08/30 01:28:11;;;;;;;4.67;4.37;;;;;;;12.29;100.00;102323.91;5011604;28;20437;-47
2022/08/30 01:30:41;;;;;;;4.23;3.93;;;;;;;12.30;100.00;102319.38;5011376;28;20433;-44
2022/08/30 01:33:10;;;;;;;4.03;3.77;;;;;;;12.28;100.00;102329.41;5011256;28;20437;-45
2022/08/30 01:35:47;;;;;;;4.50;4.23;;;;;;;12.28;100.00;102330.25;5011228;28;20842;-47
2022/08/30 01:38:18;;;;;;;4.50;4.30;;;;;;;12.27;100.00;102328.59;5011824;28;20511;-47
2022/08/30 01:40:45;;;;;;;4.30;4.10;;;;;;;12.28;100.00;102330.25;5011699;28;20468;-45
2022/08/30 01:43:14;;;;;;;4.50;4.20;;;;;;;12.26;100.00;102337.59;5011578;28;20444;-45
2022/08/30 01:45:42;;;;;;;4.40;4.10;;;;;;;12.25;100.00;102330.56;5011120;28;20464;-47
2022/08/30 01:48:11;;;;;;;4.70;4.07;;;;;;;12.25;100.00;102335.94;5009275;28;20950;-44
2022/08/30 01:50:40;;;;;;;4.53;4.23;;;;;;;12.23;100.00;102340.63;5010287;28;20461;-47
2022/08/30 01:53:08;;;;;;;3.93;3.63;;;;;;;12.24;100.00;102328.09;5012937;28;20811;-46
2022/08/30 01:55:41;;;;;;;4.50;4.10;;;;;;;12.21;100.00;102329.25;5011041;28;20492;-44
2022/08/30 01:58:09;;;;;;;4.33;3.63;;;;;;;12.18;100.00;102334.94;5011548;28;20769;-44
2022/08/30 02:00:38;;;;;;;4.03;3.83;;;;;;;12.18;100.00;102332.28;5011498;28;20437;-46
2022/08/30 02:03:06;;;;;;;4.43;4.03;;;;;;;12.13;100.00;102331.94;5008038;28;20439;-48
2022/08/30 02:05:34;;;;;;;4.87;4.57;;;;;;;12.12;100.00;102324.94;5010990;28;20494;-44
2022/08/30 02:08:02;;;;;;;4.67;4.30;;;;;;;12.10;100.00;102326.91;5011324;28;20448;-47
2022/08/30 02:10:30;;;;;;;4.03;3.80;;;;;;;12.09;100.00;102328.78;5010878;28;20986;-49
2022/08/30 02:12:59;;;;;;;4.00;3.77;;;;;;;12.06;100.00;102337.13;5011290;28;20437;-45
2022/08/30 02:15:26;;;;;;;4.30;4.00;;;;;;;12.04;100.00;102344.47;5010675;28;20468;-44
2022/08/30 02:17:54;;;;;;;4.30;3.90;;;;;;;12.00;100.00;102337.81;5011349;28;20437;-47
2022/08/30 02:20:22;;;;;;;3.80;3.50;;;;;;;11.99;100.00;102338.78;5011236;28;20436;-44
2022/08/30 02:22:49;;;;;;;3.97;3.77;;;;;;;11.99;100.00;102343.31;5011493;28;20458;-47
2022/08/30 02:25:17;;;;;;;3.50;3.40;;;;;;;11.96;100.00;102340.97;5014217;28;20800;-45
2022/08/30 02:27:47;;;;;;;3.33;3.23;;;;;;;11.95;100.00;102336.59;5015279;28;20436;-45
2022/08/30 02:30:16;;;;;;;4.20;3.97;;;;;;;11.95;100.00;102341.94;5014989;28;20468;-48
2022/08/30 02:32:44;;;;;;;4.17;3.87;;;;;;;11.95;100.00;102349.97;5006594;28;20452;-45
2022/08/30 02:35:12;;;;;;;3.80;3.60;;;;;;;11.97;100.00;102345.31;5014320;28;20461;-45
2022/08/30 02:37:39;;;;;;;4.53;4.13;;;;;;;11.99;100.00;102345.97;5014515;28;20922;-44
2022/08/30 02:40:08;;;;;;;3.90;3.70;;;;;;;12.00;100.00;102344.97;5014598;28;20945;-45
2022/08/30 02:42:36;;;;;;;3.77;3.60;;;;;;;12.03;100.00;102342.81;5014652;28;20453;-46
2022/08/30 02:45:04;;;;;;;4.17;3.87;;;;;;;12.10;100.00;102340.28;5014223;28;20460;-44
2022/08/30 02:47:34;;;;;;;3.87;3.67;;;;;;;12.15;100.00;102341.47;5014793;28;20445;-47
2022/08/30 02:50:02;;;;;;;4.40;4.07;;;;;;;12.22;100.00;102333.59;5014656;28;20523;-46
2022/08/30 02:52:30;;;;;;;4.10;3.90;;;;;;;12.29;100.00;102331.91;5023324;28;20456;-46
2022/08/30 02:54:58;;;;;;;4.83;4.47;;;;;;;12.34;100.00;102332.25;5019287;28;20494;-47
2022/08/30 02:57:26;;;;;;;3.90;3.70;;;;;;;12.37;100.00;102323.88;5014430;28;20439;-47
2022/08/30 02:59:53;;;;;;;4.83;4.40;;;;;;;12.38;100.00;102325.56;5006058;28;20760;-44
2022/08/30 03:02:22;;;;;;;4.27;4.10;;;;;;;12.43;100.00;102319.69;5013796;28;20465;-44
2022/08/30 03:04:51;;;;;;;4.03;3.83;;;;;;;12.47;100.00;102316.50;5013783;28;20787;-48
2022/08/30 03:07:18;;;;;;;4.80;4.43;;;;;;;12.49;100.00;102319.00;5014201;28;20441;-47
2022/08/30 03:09:46;;;;;;;4.37;4.07;;;;;;;12.53;100.00;102321.19;5013885;28;20472;-45
2022/08/30 03:12:14;;;;;;;4.17;3.87;;;;;;;12.55;100.00;102329.84;5012940;28;20449;-44
2022/08/30 03:14:41;;;;;;;4.30;4.00;;;;;;;12.61;100.00;102317.63;5010893;28;20494;-46
2022/08/30 03:17:10;;;;;;;4.80;4.40;;;;;;;12.69;100.00;102321.13;5012537;28;20508;-46
2022/08/30 03:19:42;;;;;;;4.70;4.40;;;;;;;12.72;100.00;102318.09;5014369;28;20491;-46
2022/08/30 03:22:12;;;;;;;4.13;4.03;;;;;;;12.70;100.00;102325.47;5013722;28;20468;-46
2022/08/30 03:24:40;;;;;;;4.57;4.37;;;;;;;12.69;100.00;102326.47;5013924;28;20453;-46
2022/08/30 03:27:08;;;;;;;4.33;4.13;;;;;;;12.66;100.00;102323.31;5013833;28;20558;-48
2022/08/30 03:29:36;;;;;;;4.33;4.13;;;;;;;12.65;100.00;102330.53;5013612;28;20480;-47
2022/08/30 03:32:03;;;;;;;4.40;4.20;;;;;;;12.65;100.00;102327.00;5013660;28;20457;-47
2022/08/30 03:34:31;;;;;;;4.20;4.00;;;;;;;12.67;100.00;102335.69;5013034;28;20437;-47
2022/08/30 03:37:00;;;;;;;5.23;4.83;;;;;;;12.67;100.00;102328.50;5013781;28;20433;-44
2022/08/30 03:39:29;;;;;;;4.10;3.90;;;;;;;12.69;100.00;102331.81;5013626;28;20429;-46
2022/08/30 03:41:56;;;;;;;4.30;4.00;;;;;;;12.75;100.00;102331.13;5013405;28;20547;-46
2022/08/30 03:44:25;;;;;;;4.33;4.13;;;;;;;12.77;100.00;102334.50;5012870;28;20464;-44
2022/08/30 03:46:54;;;;;;;4.77;4.20;;;;;;;12.86;100.00;102329.09;5025978;23;20489;-49
2022/08/30 03:49:22;;;;;;;4.50;4.30;;;;;;;12.91;100.00;102330.25;5011999;28;20942;-49
2022/08/30 03:51:51;;;;;;;6.70;6.20;;;;;;;12.98;100.00;102338.44;5019025;28;20436;-46
2022/08/30 03:54:18;;;;;;;4.40;4.10;;;;;;;13.02;100.00;102343.25;5015618;28;20433;-50
2022/08/30 03:56:47;;;;;;;5.70;5.20;;;;;;;13.08;100.00;102342.59;5012551;28;20455;-47
2022/08/30 03:59:15;;;;;;;4.93;4.63;;;;;;;13.11;100.00;102344.13;5011643;28;20429;-51
2022/08/30 04:01:44;;;;;;;5.53;5.23;;;;;;;13.14;100.00;102343.75;5013402;28;20433;-48
2022/08/30 04:04:12;;;;;;;9.83;5.83;;;;;;;13.22;100.00;102335.69;5013055;28;20889;-52
2022/08/30 04:06:45;;;;;;;6.57;6.07;;;;;;;13.28;100.00;102334.97;5013196;28;21029;-50
2022/08/30 04:09:12;;;;;;;5.90;5.50;;;;;;;13.36;100.00;102336.75;5012822;28;20437;-54
2022/08/30 04:11:40;;;;;;;6.00;5.70;;;;;;;13.42;100.00;102339.59;5013066;28;20469;-48
2022/08/30 04:14:09;;;;;;;6.33;5.83;;;;;;;13.48;100.00;102338.88;5013091;28;20926;-51
2022/08/30 04:16:37;;;;;;;6.13;5.57;;;;;;;13.54;100.00;102335.50;5012682;28;20468;-49
2022/08/30 04:19:05;;;;;;;6.40;5.80;;;;;;;13.59;100.00;102333.09;5012915;28;20437;-48
2022/08/30 04:21:32;;;;;;;5.70;5.40;;;;;;;13.65;100.00;102329.72;5012321;28;20437;-50
2022/08/30 04:24:09;;;;;;;5.77;5.47;;;;;;;13.67;100.00;102327.72;5012974;28;20428;-46
2022/08/30 04:26:37;;;;;;;6.53;5.90;;;;;;;13.71;100.00;102339.72;5012159;28;20467;-50
2022/08/30 04:29:04;;;;;;;6.43;5.90;;;;;;;13.76;100.00;102341.88;5012740;28;20433;-51
2022/08/30 04:31:33;;;;;;;6.80;6.30;;;;;;;13.78;100.00;102334.47;5012804;28;20675;-54
2022/08/30 04:34:01;;;;;;;7.73;6.03;;;;;;;13.81;100.00;102339.50;5012344;28;20433;-50
2022/08/30 04:36:29;;;;;;;6.43;5.90;;;;;;;13.84;100.00;102333.78;5012202;28;20465;-49
2022/08/30 04:38:57;;;;;;;5.80;5.40;;;;;;;13.88;100.00;102337.78;5012980;28;20460;-49
2022/08/30 04:41:24;;;;;;;6.17;5.60;;;;;;;13.93;100.00;102346.09;5012257;28;20939;-51
2022/08/30 04:43:52;;;;;;;6.17;5.23;;;;;;;13.98;100.00;102343.69;5012237;28;20433;-48
2022/08/30 04:46:20;;;;;;;6.67;6.20;;;;;;;14.05;100.00;102343.81;5011240;28;20468;-53
2022/08/30 04:48:49;;;;;;;5.77;5.50;;;;;;;14.10;100.00;102344.09;5012358;28;20855;-52
2022/08/30 04:51:17;;;;;;;5.87;5.57;;;;;;;14.15;100.00;102344.41;5011571;28;20500;-51
2022/08/30 04:53:45;;;;;;;7.20;6.60;;;;;;;14.19;100.00;102354.59;5017289;28;20441;-54
2022/08/30 04:56:16;;;;;;;6.63;5.47;;;;;;;14.22;100.00;102351.56;5011779;28;20838;-53
2022/08/30 04:58:44;;;;;;;5.57;5.17;;;;;;;14.25;100.00;102353.03;5012439;28;20447;-47
2022/08/30 05:01:13;;;;;;;7.20;5.73;;;;;;;14.30;100.00;102358.72;5012021;28;20444;-50
2022/08/30 05:03:45;;;;;;;6.60;6.00;;;;;;;14.33;100.00;102353.84;5012320;28;20468;-48
2022/08/30 05:06:15;;;;;;;6.47;5.97;;;;;;;14.41;100.00;102355.59;5009994;28;20465;-54
2022/08/30 05:08:44;;;;;;;6.30;5.90;;;;;;;14.48;100.00;102358.41;5012139;28;20948;-53
2022/08/30 05:11:13;;;;;;;7.33;6.27;;;;;;;14.55;100.00;102364.69;5008122;28;20526;-52
2022/08/30 05:13:41;;;;;;;5.70;5.30;;;;;;;14.64;100.00;102363.59;5011675;28;21113;-45
2022/08/30 05:16:09;;;;;;;5.60;5.30;;;;;;;14.72;100.00;102359.00;5011679;28;20461;-48
2022/08/30 05:18:37;;;;;;;6.73;6.10;;;;;;;14.81;100.00;102362.41;5007925;28;20476;-49
2022/08/30 05:21:07;;;;;;;5.47;5.17;;;;;;;14.89;100.00;102370.38;5012331;28;20437;-49
2022/08/30 05:23:38;;;;;;;5.50;5.00;;;;;;;15.03;100.00;102366.00;5011861;28;20425;-50
2022/08/30 05:26:07;;;;;;;5.37;5.07;;;;;;;15.14;100.00;102368.25;5011373;28;20493;-54
2022/08/30 05:28:35;;;;;;;7.10;6.40;;;;;;;15.37;100.00;102374.31;5009917;28;20436;-47
2022/08/30 05:31:03;;;;;;;6.67;5.90;;;;;;;15.38;100.00;102371.41;5012138;28;20835;-51
2022/08/30 05:33:40;;;;;;;7.50;6.13;;;;;;;15.41;100.00;102368.34;5010003;28;20433;-52
2022/08/30 05:36:09;;;;;;;10.17;6.60;;;;;;;15.51;100.00;102373.47;5011209;28;20461;-52
2022/08/30 05:38:38;;;;;;;6.43;6.07;;;;;;;15.62;100.00;102364.91;5011482;28;20440;-46
2022/08/30 05:41:08;;;;;;;6.30;5.97;;;;;;;15.83;100.00;102370.28;5011776;28;20435;-53
2022/08/30 05:43:38;;;;;;;5.43;5.13;;;;;;;16.18;100.00;102373.13;5011570;28;20524;-51
2022/08/30 05:46:09;;;;;;;6.00;5.70;;;;;;;16.63;100.00;102371.84;5010904;28;20468;-49
2022/08/30 05:48:37;;;;;;;5.77;5.33;;;;;;;16.59;100.00;102376.78;5011943;28;20425;-51
2022/08/30 05:51:08;;;;;;;6.37;5.90;;;;;;;16.54;100.00;102379.25;5009607;28;20469;-49
2022/08/30 05:53:36;;;;;;;6.30;6.00;;;;;;;16.47;100.00;102378.31;5011729;28;20435;-51
2022/08/30 05:56:08;;;;;;;6.30;6.00;;;;;;;16.40;100.00;102382.81;5011633;28;20469;-47
2022/08/30 05:58:36;;;;;;;5.57;5.07;;;;;;;16.43;100.00;102377.88;5015323;28;20437;-49
2022/08/30 06:01:04;;;;;;;4.93;4.67;;;;;;;16.46;100.00;102379.34;5015982;28;20433;-49
2022/08/30 06:03:32;;;;;;;6.40;6.03;;;;;;;16.55;100.00;102378.19;5014590;28;20436;-49
2022/08/30 06:06:01;;;;;;;6.20;5.80;;;;;;;16.59;100.00;102374.94;5025767;28;20468;-47
2022/08/30 06:08:29;;;;;;;6.67;5.90;;;;;;;16.68;100.00;102375.63;5017810;28;20922;-49
2022/08/30 06:10:57;;;;;;;5.70;5.40;;;;;;;16.81;100.00;102386.50;5015597;28;20942;-50
2022/08/30 06:13:25;;;;;;;5.80;5.33;;;;;;;16.93;100.00;102379.50;5015247;28;20429;-49
2022/08/30 06:15:53;;;;;;;6.20;5.80;;;;;;;17.03;100.00;102377.28;5014810;28;20464;-52
2022/08/30 06:18:21;;;;;;;6.07;5.70;;;;;;;17.09;100.00;102379.16;5013758;28;20460;-53
2022/08/30 06:20:55;;;;;;;5.70;5.30;;;;;;;17.18;100.00;102379.81;5015383;28;20440;-52
2022/08/30 06:23:23;;;;;;;6.10;5.60;;;;;;;17.27;100.00;102388.56;5015003;28;20455;-47
2022/08/30 06:25:51;;;;;;;5.60;5.30;;;;;;;17.34;100.00;102384.88;5014561;28;20456;-47
2022/08/30 06:28:18;;;;;;;6.37;5.60;;;;;;;17.45;100.00;102383.47;5015355;28;20433;-47
2022/08/30 06:30:47;;;;;;;5.83;5.53;;;;;;;17.54;100.00;102383.13;5014944;28;20437;-50
2022/08/30 06:33:15;;;;;;;5.90;5.50;;;;;;;17.55;100.00;102389.34;5014776;28;20930;-53
2022/08/30 06:35:42;;;;;;;5.93;5.53;;;;;;;17.76;100.00;102385.66;5014292;28;20974;-48
2022/08/30 06:38:26;;;;;;;5.60;5.40;;;;;;;17.99;100.00;102378.88;5014963;28;20921;-50
2022/08/30 06:40:54;;;;;;;5.80;5.50;;;;;;;18.29;97.19;102384.69;5015013;28;20437;-52
2022/08/30 06:43:21;;;;;;;5.00;4.90;;;;;;;19.05;93.17;102377.78;5014772;28;20443;-56
2022/08/30 06:45:50;;;;;;;5.80;5.40;;;;;;;20.14;91.11;102370.31;5003120;28;20460;-50
2022/08/30 06:48:18;;;;;;;4.87;4.67;;;;;;;20.84;83.31;102379.09;5012699;28;20430;-51
2022/08/30 06:50:45;;;;;;;5.13;4.93;;;;;;;21.00;80.78;102383.91;5014589;28;20968;-52
2022/08/30 06:53:14;;;;;;;5.00;4.70;;;;;;;21.81;71.82;102370.75;5016840;28;20468;-51
2022/08/30 06:55:41;;;;;;;5.47;5.07;;;;;;;22.16;72.75;102372.78;5019876;28;20463;-50
2022/08/30 06:58:10;;;;;;;5.27;5.07;;;;;;;22.28;72.05;102373.63;5012250;28;20472;-51
2022/08/30 07:00:39;;;;;;;5.23;5.03;;;;;;;22.26;68.38;102373.84;5006418;28;20436;-47
2022/08/30 07:03:08;;;;;;;4.70;4.50;;;;;;;22.17;66.20;102374.41;5014283;28;20428;-47
2022/08/30 07:05:36;;;;;;;6.27;5.77;;;;;;;21.73;68.00;102384.66;5013684;28;20492;-53
2022/08/30 07:08:03;;;;;;;5.60;5.40;;;;;;;21.77;69.84;102374.19;5002886;28;20559;-53
2022/08/30 07:10:31;;;;;;;5.77;5.40;;;;;;;21.43;70.00;102373.81;5012584;28;20448;-52
2022/08/30 07:12:59;;;;;;;5.13;4.73;;;;;;;21.34;71.27;102369.75;5013935;28;20472;-52
2022/08/30 07:15:26;;;;;;;5.23;5.03;;;;;;;21.44;71.47;102380.06;5013085;28;20465;-55
2022/08/30 07:20:42;;;;;;;5.63;4.90;;;;;;;21.84;69.78;102378.44;5013937;28;20536;-50
2022/08/30 07:23:10;;;;;;;4.60;4.50;;;;;;;21.72;69.49;102387.59;5014269;28;20433;-49
2022/08/30 07:25:40;;;;;;;5.07;4.80;;;;;;;21.52;68.56;102386.00;5013612;28;20484;-53
2022/08/30 07:28:08;;;;;;;5.67;5.37;;;;;;;21.33;69.41;102389.78;5014062;28;20421;-51
2022/08/30 07:30:36;;;;;;;4.83;4.63;;;;;;;21.22;72.14;102400.59;5014278;28;20440;-50
2022/08/30 07:33:03;;;;;;;5.10;4.80;;;;;;;21.03;70.52;102394.28;5013556;28;20476;-51
2022/08/30 07:35:31;;;;;;;4.93;4.67;;;;;;;20.95;69.34;102408.16;5013334;28;20828;-54
2022/08/30 07:38:00;;;;;;;5.17;4.97;;;;;;;20.74;70.06;102400.44;5013849;28;20459;-54
2022/08/30 07:40:28;;;;;;;5.03;4.73;;;;;;;20.77;69.90;102403.56;5013844;28;20440;-56
2022/08/30 07:42:55;;;;;;;5.00;4.80;;;;;;;20.67;67.76;102402.41;5013378;28;20428;-55
2022/08/30 07:45:23;;;;;;;4.93;4.50;;;;;;;20.50;67.57;102404.00;5013161;28;20468;-54
2022/08/30 07:47:51;;;;;;;5.23;5.03;;;;;;;20.28;67.87;102409.81;5013400;28;20838;-55
2022/08/30 07:50:18;;;;;;;4.80;4.70;;;;;;;20.09;67.15;102407.25;5013667;28;20444;-55
2022/08/30 07:52:46;;;;;;;5.33;5.03;;;;;;;20.20;67.87;102422.78;5016307;28;20471;-56
2022/08/30 07:55:15;;;;;;;4.97;4.77;;;;;;;20.16;67.16;102422.38;5019834;28;20464;-54
2022/08/30 07:57:43;;;;;;;6.93;5.33;;;;;;;20.28;66.51;102417.94;5011255;28;20571;-53
2022/08/30 08:00:11;;;;;;;5.53;5.23;;;;;;;20.18;65.23;102424.88;5013694;28;20437;-52
2022/08/30 08:02:39;;;;;;;4.87;4.67;;;;;;;20.12;66.37;102418.47;5012859;28;20439;-51
2022/08/30 08:05:08;;;;;;;6.60;6.00;;;;;;;20.22;66.44;102432.34;5013069;28;20549;-52
2022/08/30 08:07:43;;;;;;;5.00;4.80;;;;;;;20.04;63.15;102434.16;5013111;28;20973;-52
2022/08/30 08:10:12;;;;;;;5.60;5.40;;;;;;;20.05;63.33;102439.34;5013311;28;20508;-54
2022/08/30 08:12:41;;;;;;;4.93;4.73;;;;;;;20.12;62.19;102436.59;5012829;28;20512;-56
2022/08/30 08:15:09;;;;;;;5.03;4.67;;;;;;;20.22;60.43;102439.66;5012785;28;21000;-49
2022/08/30 08:17:37;;;;;;;4.00;3.80;;;;;;;20.23;59.44;102438.59;5013098;28;20456;-51
2022/08/30 08:20:06;;;;;;;3.73;3.43;;;;;;;20.42;60.72;102440.38;5012644;28;20436;-54
2022/08/30 08:22:33;;;;;;;4.80;3.80;;;;;;;20.49;60.09;102434.91;5012755;28;20429;-54
2022/08/30 08:25:07;;;;;;;3.33;3.23;;;;;;;20.60;59.20;102445.00;5012439;28;20515;-55
2022/08/30 08:27:34;;;;;;;3.80;3.60;;;;;;;21.01;58.05;102441.69;5012977;28;20784;-54
2022/08/30 08:30:04;;;;;;;3.87;3.70;;;;;;;21.42;55.95;102453.56;5012827;28;20447;-55
2022/08/30 08:32:32;;;;;;;3.60;3.40;;;;;;;21.54;54.84;102456.34;5012614;28;20460;-54
2022/08/30 08:34:59;;;;;;;3.10;3.00;;;;;;;21.38;54.08;102454.25;5012388;28;20464;-54
2022/08/30 08:37:27;;;;;;;3.20;3.10;;;;;;;21.23;54.92;102460.06;5012786;28;20457;-53
2022/08/30 08:39:55;;;;;;;3.87;3.20;;;;;;;21.41;55.61;102454.59;5012581;28;20447;-52
2022/08/30 08:42:31;;;;;;;7.90;3.60;;;;;;;21.27;53.98;102466.69;5012577;28;20435;-56
2022/08/30 08:45:03;;;;;;;3.43;3.33;;;;;;;21.07;55.63;102463.31;5005921;28;20826;-53
2022/08/30 08:47:41;;;;;;;3.03;2.93;;;;;;;20.96;55.34;102464.06;5012228;28;20463;-54
2022/08/30 08:50:16;;;;;;;2.90;2.70;;;;;;;21.17;53.34;102471.00;5012345;28;20436;-55
2022/08/30 08:55:48;;;;;;;3.20;3.10;;;;;;;21.16;53.17;102472.88;5011834;28;21202;-54
2022/08/30 08:58:22;;;;;;;4.60;3.27;;;;;;;21.10;52.34;102471.06;5012331;28;20494;-53
2022/08/30 09:00:50;;;;;;;3.20;3.00;;;;;;;21.21;53.74;102473.00;5010866;28;20432;-53
2022/08/30 09:03:22;;;;;;;3.50;3.20;;;;;;;20.94;51.15;102477.84;5012316;28;20429;-56
2022/08/30 09:05:50;;;;;;;3.20;3.00;;;;;;;21.02;47.30;102484.03;5009665;28;20837;-54
2022/08/30 09:08:19;;;;;;;3.10;2.93;;;;;;;21.12;46.37;102485.22;5010048;28;20447;-54
2022/08/30 09:10:52;;;;;;;3.20;3.10;;;;;;;21.23;47.61;102481.78;5012605;28;20428;-54
2022/08/30 09:13:20;;;;;;;3.30;2.97;;;;;;;21.04;46.97;102479.22;5011535;28;20472;-56
2022/08/30 09:15:50;;;;;;;2.80;2.60;;;;;;;21.03;47.18;102474.88;5011596;28;20487;-54
2022/08/30 09:18:44;;;;;;;2.73;2.63;;;;;;;21.35;47.24;102468.28;5012220;28;20838;-51
2022/08/30 09:21:23;;;;;;;2.97;2.77;;;;;;;21.46;46.64;102473.78;5012007;28;20794;-55
2022/08/30 09:23:58;;;;;;;5.90;2.70;;;;;;;21.82;47.44;102464.75;5011829;28;20421;-55
2022/08/30 09:26:32;;;;;;;3.63;2.63;;;;;;;22.07;44.93;102470.09;5011445;28;20526;-54
2022/08/30 09:29:00;;;;;;;2.90;2.80;;;;;;;21.74;44.27;102467.81;5011671;28;20413;-52
2022/08/30 09:31:29;;;;;;;3.00;2.80;;;;;;;21.67;43.32;102466.22;5011712;28;20523;-53
2022/08/30 09:34:04;;;;;;;3.43;3.23;;;;;;;21.69;43.51;102464.09;5010644;28;20985;-55
2022/08/30 09:36:39;;;;;;;2.90;2.80;;;;;;;21.56;44.05;102469.69;5011251;28;20572;-55
2022/08/30 09:39:15;;;;;;;2.60;2.50;;;;;;;21.70;42.82;102468.47;5011950;28;20428;-51
2022/08/30 09:41:45;;;;;;;2.47;2.37;;;;;;;21.74;43.28;102464.25;5011743;28;20433;-54
2022/08/30 09:44:16;;;;;;;3.63;3.30;;;;;;;21.48;43.35;102466.22;5011459;28;20515;-49
2022/08/30 09:46:48;;;;;;;3.40;3.20;;;;;;;21.41;43.84;102468.19;5002832;28;20463;-53
2022/08/30 09:49:34;;;;;;;3.07;2.87;;;;;;;21.33;42.93;102470.38;5011905;28;20519;-55
2022/08/30 09:52:11;;;;;;;3.33;3.10;;;;;;;21.44;43.34;102467.72;5009962;28;20532;-56
2022/08/30 09:54:48;;;;;;;2.93;2.83;;;;;;;21.65;42.96;102462.91;5014747;28;20467;-52
2022/08/30 09:57:28;;;;;;;3.10;2.93;;;;;;;21.81;43.37;102460.38;5015003;28;20444;-55
2022/08/30 10:00:14;;;;;;;3.27;3.17;;;;;;;21.82;43.31;102463.94;5011364;28;20443;-52
2022/08/30 10:02:58;;;;;;;2.70;2.50;;;;;;;21.67;42.48;102463.50;5011587;28;20420;-50
2022/08/30 10:05:36;;;;;;;3.57;3.47;;;;;;;21.67;42.56;102464.34;5010880;28;20472;-52
2022/08/30 10:08:14;;;;;;;2.80;2.70;;;;;;;21.47;43.38;102466.47;5011132;28;20985;-50
2022/08/30 10:10:51;;;;;;;3.10;2.90;;;;;;;21.69;42.80;102473.06;5011539;28;20446;-56
2022/08/30 10:13:42;;;;;;;2.87;2.70;;;;;;;22.13;42.14;102449.31;5011539;28;20547;-56
2022/08/30 10:16:21;;;;;;;6.80;2.70;;;;;;;22.19;41.50;102462.78;5001803;28;20507;-52
2022/08/30 10:18:59;;;;;;;3.50;3.07;;;;;;;22.35;41.91;102474.88;5006826;28;20778;-51
2022/08/30 10:21:34;;;;;;;2.90;2.80;;;;;;;22.44;41.82;102462.63;5011433;28;20776;-50
2022/08/30 10:24:06;;;;;;;2.93;2.70;;;;;;;22.21;41.72;102468.00;5002092;28;20428;-56
2022/08/30 10:26:38;;;;;;;2.93;2.83;;;;;;;22.37;42.54;102461.91;5010602;28;20467;-53
2022/08/30 10:29:13;;;;;;;3.00;2.80;;;;;;;21.87;44.24;102464.06;5011252;28;20420;-51
2022/08/30 10:31:48;;;;;;;3.20;3.00;;;;;;;21.70;45.80;102460.31;5005323;28;20436;-51
2022/08/30 10:34:20;;;;;;;3.00;2.90;;;;;;;21.70;45.71;102477.44;5010400;28;20483;-50
2022/08/30 10:36:54;;;;;;;2.70;2.60;;;;;;;21.55;43.57;102465.31;5011151;28;20514;-51
2022/08/30 10:39:28;;;;;;;4.33;4.03;;;;;;;21.63;44.49;102473.16;5009637;28;20929;-56
2022/08/30 10:42:05;;;;;;;2.77;2.67;;;;;;;21.93;45.17;102468.59;5010101;28;20651;-53
2022/08/30 10:44:37;;;;;;;2.60;2.50;;;;;;;21.89;41.92;102481.00;5012626;28;20912;-56
2022/08/30 10:47:17;;;;;;;3.20;3.10;;;;;;;21.81;42.98;102473.97;5011146;28;21001;-55
2022/08/30 10:49:55;;;;;;;3.23;3.03;;;;;;;21.35;45.32;102469.13;5015149;28;20798;-55
2022/08/30 10:52:31;;;;;;;3.50;3.30;;;;;;;21.49;45.28;102475.22;5011589;28;20879;-56
2022/08/30 10:55:04;;;;;;;3.20;3.10;;;;;;;21.68;43.11;102462.44;5025927;28;20471;-55
2022/08/30 10:57:32;;;;;;;3.03;2.93;;;;;;;21.59;44.01;102485.53;5014523;28;20973;-56
2022/08/30 11:00:03;;;;;;;5.30;3.10;;;;;;;21.54;43.83;102478.06;5014880;28;20874;-57
2022/08/30 11:02:55;;;;;;;3.53;2.90;;;;;;;21.71;42.96;102483.72;5014485;28;20425;-54
2022/08/30 11:05:47;;;;;;;3.20;2.70;;;;;;;21.48;42.81;102478.97;5005495;28;20464;-50
2022/08/30 11:08:30;;;;;;;3.20;3.00;;;;;;;21.61;45.36;102491.56;5014683;28;20425;-52
2022/08/30 11:11:06;;;;;;;4.03;2.80;;;;;;;21.65;44.29;102479.19;5006565;28;20444;-54
2022/08/30 11:13:41;;;;;;;2.90;2.80;;;;;;;22.01;44.15;102477.25;5013976;28;20486;-55
2022/08/30 11:16:14;;;;;;;3.13;2.90;;;;;;;22.10;41.46;102471.53;5013357;28;20507;-52
2022/08/30 11:18:45;;;;;;;3.63;3.53;;;;;;;22.15;41.86;102474.38;5014469;28;20431;-56
2022/08/30 11:21:23;;;;;;;2.70;2.60;;;;;;;22.26;40.37;102479.84;5001917;28;20975;-55
2022/08/30 11:24:04;;;;;;;3.60;2.40;;;;;;;22.14;40.58;102483.56;5014068;28;20425;-55
2022/08/30 11:27:00;;;;;;;2.80;2.70;;;;;;;22.08;40.41;102476.34;5013612;28;20951;-56
2022/08/30 11:29:35;;;;;;;2.70;2.60;;;;;;;22.06;40.35;102479.31;5014062;28;20437;-54
2022/08/30 11:32:44;;;;;;;2.57;2.47;;;;;;;22.17;40.68;102472.22;5013770;28;20431;-52
2022/08/30 11:35:36;;;;;;;2.90;2.80;;;;;;;21.84;40.81;102467.22;5013240;28;20476;-54
2022/08/30 11:38:16;;;;;;;3.53;3.27;;;;;;;21.64;40.91;102478.38;5014164;28;20456;-47
2022/08/30 11:40:49;;;;;;;5.93;3.20;;;;;;;21.82;40.80;102480.22;5014006;28;20523;-49
2022/08/30 11:43:51;;;;;;;2.90;2.70;;;;;;;21.94;41.22;102471.09;5013280;28;20429;-51
2022/08/30 11:46:34;;;;;;;3.33;3.03;;;;;;;21.76;41.54;102473.00;5009408;28;20547;-52